Time;durP1;ratioP1;P1;durP2;ratioP2;P2;SDS_P1;SDS_P2;PMS_P1;PMS_P2;Temp;Humidity;BMP_temperature;BMP_pressure;BME280_temperature;BME280_humidity;BME280_pressure;Samples;Min_cycle;Max_cycle;Signal;HPM_P1;HPM_P2
2021/08/23 00:00:34;;;;;;;2.80;2.40;;;24.40;59.50;;;;;;5002623;28;20196;-74
2021/08/23 00:03:01;;;;;;;6.63;2.50;;;24.50;60.90;;;;;;4995284;28;20764;-73
2021/08/23 00:05:27;;;;;;;6.03;2.80;;;24.50;59.90;;;;;;5005848;28;20224;-75
2021/08/23 00:07:53;;;;;;;4.90;2.50;;;24.50;59.70;;;;;;5006460;28;20192;-76
2021/08/23 00:10:22;;;;;;;4.53;2.30;;;24.50;60.40;;;;;;5008723;28;20194;-74
2021/08/23 00:12:49;;;;;;;2.42;2.00;;;24.50;60.50;;;;;;5006712;28;20284;-73
2021/08/23 00:15:15;;;;;;;3.40;2.40;;;24.50;58.90;;;;;;5007279;28;20650;-73
2021/08/23 00:17:43;;;;;;;3.43;2.60;;;24.50;58.90;;;;;;5007130;28;20221;-73
2021/08/23 00:20:16;;;;;;;2.63;2.10;;;24.50;58.60;;;;;;5001753;28;20228;-76
2021/08/23 00:22:51;;;;;;;4.10;2.47;;;24.40;58.60;;;;;;5008013;28;20181;-73
2021/08/23 00:25:21;;;;;;;5.50;2.43;;;24.30;58.60;;;;;;5009814;28;20307;-73
2021/08/23 00:27:48;;;;;;;3.00;2.50;;;24.40;58.60;;;;;;5002532;28;20642;-73
2021/08/23 00:30:16;;;;;;;4.43;2.63;;;24.40;58.60;;;;;;5008630;28;20752;-75
2021/08/23 00:32:44;;;;;;;4.07;2.60;;;24.40;58.70;;;;;;4989080;28;20194;-75
2021/08/23 00:35:11;;;;;;;3.30;2.50;;;24.30;58.30;;;;;;4981727;28;20188;-75
2021/08/23 00:37:38;;;;;;;3.85;2.35;;;24.40;58.90;;;;;;4989887;28;20213;-76
2021/08/23 00:40:05;;;;;;;2.40;2.20;;;24.30;58.30;;;;;;5005631;28;20924;-75
2021/08/23 00:42:32;;;;;;;3.38;2.70;;;24.30;58.10;;;;;;5003579;28;20745;-75
2021/08/23 00:44:58;;;;;;;4.03;2.30;;;24.30;58.30;;;;;;5007214;28;20366;-75
2021/08/23 00:47:24;;;;;;;3.00;2.50;;;24.30;58.00;;;;;;5006506;28;20283;-75
2021/08/23 00:49:50;;;;;;;8.57;2.70;;;24.30;58.40;;;;;;5004925;28;20209;-75
2021/08/23 00:52:17;;;;;;;6.50;2.65;;;24.30;58.50;;;;;;5007899;28;20192;-75
2021/08/23 00:54:44;;;;;;;4.10;2.80;;;24.30;58.40;;;;;;5006314;28;20186;-75
2021/08/23 00:57:12;;;;;;;5.73;2.53;;;24.30;57.80;;;;;;5006961;28;20287;-75
2021/08/23 00:59:41;;;;;;;3.17;2.23;;;24.30;58.10;;;;;;4985536;28;20669;-75
2021/08/23 01:02:34;;;;;;;4.13;2.40;;;24.30;58.30;;;;;;5018348;28;20642;-75
2021/08/23 01:05:18;;;;;;;2.70;2.20;;;24.20;58.00;;;;;;4995675;28;20692;-74
2021/08/23 01:07:55;;;;;;;3.35;2.17;;;24.30;59.20;;;;;;4991466;28;20279;-75
2021/08/23 01:10:46;;;;;;;5.23;2.93;;;24.30;58.90;;;;;;4995875;28;20854;-75
2021/08/23 01:13:12;;;;;;;5.07;2.60;;;24.30;59.00;;;;;;5013693;28;20267;-75
2021/08/23 01:15:39;;;;;;;5.00;2.63;;;24.30;56.80;;;;;;5004979;28;20241;-75
2021/08/23 01:18:06;;;;;;;3.63;2.40;;;24.30;57.50;;;;;;4989843;28;20863;-75
2021/08/23 01:20:38;;;;;;;3.00;2.37;;;24.30;57.30;;;;;;5004379;28;20195;-74
2021/08/23 01:23:10;;;;;;;3.63;2.60;;;24.30;58.00;;;;;;5004837;28;20288;-75
2021/08/23 01:25:38;;;;;;;6.13;2.60;;;24.30;57.10;;;;;;5008174;28;20213;-74
2021/08/23 01:28:45;;;;;;;5.20;2.37;;;24.30;57.00;;;;;;5008263;28;20193;-75
2021/08/23 01:31:14;;;;;;;3.50;2.73;;;24.20;57.00;;;;;;5019027;28;20212;-75
2021/08/23 01:33:46;;;;;;;3.80;2.43;;;24.20;56.80;;;;;;5003202;28;20197;-74
2021/08/23 01:36:13;;;;;;;4.57;2.37;;;24.20;56.50;;;;;;4998758;28;20255;-74
2021/08/23 01:38:40;;;;;;;2.93;2.40;;;24.20;56.50;;;;;;5004697;28;20209;-76
2021/08/23 01:41:09;;;;;;;3.70;2.60;;;24.20;56.80;;;;;;5007358;28;20185;-75
2021/08/23 01:43:37;;;;;;;3.40;2.40;;;24.20;56.80;;;;;;4999308;28;20186;-75
2021/08/23 01:46:04;;;;;;;3.83;2.77;;;24.20;58.40;;;;;;5004399;28;20192;-74
2021/08/23 01:48:31;;;;;;;4.03;2.50;;;24.20;58.20;;;;;;5003235;28;20220;-75
2021/08/23 01:50:59;;;;;;;4.37;2.60;;;24.30;58.60;;;;;;5004864;28;20193;-75
2021/08/23 01:53:25;;;;;;;3.87;2.47;;;24.30;58.90;;;;;;5006643;28;20566;-75
2021/08/23 01:55:52;;;;;;;5.63;2.80;;;24.30;59.00;;;;;;5004350;28;20542;-76
2021/08/23 01:58:19;;;;;;;3.00;2.60;;;24.30;60.30;;;;;;4994007;28;20303;-76
2021/08/23 02:00:46;;;;;;;2.93;2.50;;;24.30;58.30;;;;;;5004114;28;20185;-75
2021/08/23 02:03:12;;;;;;;3.87;2.93;;;24.30;58.00;;;;;;5008167;28;20949;-75
2021/08/23 02:05:39;;;;;;;3.53;2.73;;;24.30;58.50;;;;;;5001328;28;20197;-75
2021/08/23 02:08:08;;;;;;;5.20;2.73;;;24.30;58.80;;;;;;4984134;28;20546;-75
2021/08/23 02:10:34;;;;;;;5.77;2.67;;;24.30;58.90;;;;;;5003737;28;20254;-74
2021/08/23 02:13:00;;;;;;;3.73;2.53;;;24.30;60.10;;;;;;5009610;28;20196;-75
2021/08/23 02:15:26;;;;;;;4.60;2.60;;;24.30;59.30;;;;;;5007268;28;20296;-75
2021/08/23 02:17:53;;;;;;;3.13;2.47;;;24.30;58.40;;;;;;5007903;28;20276;-75
2021/08/23 02:20:19;;;;;;;3.37;2.60;;;24.30;58.60;;;;;;5005799;28;20176;-75
2021/08/23 02:22:48;;;;;;;3.80;2.67;;;24.30;58.80;;;;;;5003824;28;20193;-75
2021/08/23 02:25:22;;;;;;;4.33;2.47;;;24.20;59.40;;;;;;5003989;28;20189;-75
2021/08/23 02:27:53;;;;;;;5.07;2.53;;;24.20;58.50;;;;;;5002863;28;20199;-75
2021/08/23 02:30:21;;;;;;;6.00;2.77;;;24.20;58.60;;;;;;5004525;28;20249;-75
2021/08/23 02:32:48;;;;;;;5.87;2.67;;;24.20;58.80;;;;;;4989164;28;20607;-75
2021/08/23 02:35:15;;;;;;;3.92;2.65;;;24.10;58.40;;;;;;5007318;28;20283;-75
2021/08/23 02:37:41;;;;;;;3.10;2.67;;;24.20;58.60;;;;;;4994951;28;20300;-75
2021/08/23 02:40:08;;;;;;;4.93;2.60;;;24.10;58.70;;;;;;5005356;28;20180;-74
2021/08/23 02:42:35;;;;;;;3.80;2.70;;;24.10;58.80;;;;;;5007210;28;20711;-75
2021/08/23 02:45:01;;;;;;;4.40;2.60;;;24.10;59.10;;;;;;5007700;28;20553;-75
2021/08/23 02:47:29;;;;;;;4.63;2.53;;;24.10;58.70;;;;;;5016354;28;20223;-75
2021/08/23 02:49:55;;;;;;;4.63;2.60;;;24.10;59.00;;;;;;5008085;28;20220;-75
2021/08/23 02:52:21;;;;;;;5.87;3.03;;;24.00;58.50;;;;;;5007538;28;20192;-75
2021/08/23 02:54:47;;;;;;;5.87;2.70;;;24.00;59.10;;;;;;5004815;28;20292;-75
2021/08/23 02:57:14;;;;;;;5.03;2.77;;;24.00;58.80;;;;;;5007193;28;20851;-75
2021/08/23 02:59:40;;;;;;;3.00;2.47;;;24.00;58.50;;;;;;5005042;28;20920;-75
2021/08/23 03:02:06;;;;;;;3.67;2.40;;;24.00;58.80;;;;;;5004323;28;20192;-75
2021/08/23 03:04:34;;;;;;;4.50;2.77;;;24.10;58.60;;;;;;5003969;28;20192;-75
2021/08/23 03:07:00;;;;;;;6.57;2.80;;;24.10;58.60;;;;;;5004350;28;20188;-75
2021/08/23 03:09:26;;;;;;;5.67;2.53;;;24.10;59.00;;;;;;5007298;28;20255;-75
2021/08/23 03:11:52;;;;;;;4.37;2.60;;;24.10;58.80;;;;;;5004865;28;20185;-75
2021/08/23 03:14:19;;;;;;;5.53;2.80;;;24.10;58.90;;;;;;5001384;28;20285;-75
2021/08/23 03:16:45;;;;;;;8.20;2.73;;;24.10;58.00;;;;;;5006174;28;20259;-75
2021/08/23 03:19:11;;;;;;;9.27;2.70;;;24.10;58.30;;;;;;5001522;28;20287;-75
2021/08/23 03:21:38;;;;;;;5.43;2.53;;;24.10;58.20;;;;;;5001857;28;20617;-75
2021/08/23 03:24:05;;;;;;;3.60;2.87;;;24.10;58.20;;;;;;4985331;28;20181;-75
2021/08/23 03:26:32;;;;;;;6.40;2.53;;;24.20;58.30;;;;;;5002990;28;20197;-75
2021/08/23 03:28:58;;;;;;;5.13;2.73;;;24.10;58.30;;;;;;4999110;28;20684;-74
2021/08/23 03:31:25;;;;;;;4.10;2.77;;;24.10;58.20;;;;;;5002055;28;20209;-74
2021/08/23 03:33:52;;;;;;;4.90;2.70;;;24.10;58.10;;;;;;5018520;28;20797;-75
2021/08/23 03:36:18;;;;;;;3.77;2.40;;;24.10;58.40;;;;;;5002021;28;20201;-76
2021/08/23 03:38:47;;;;;;;5.17;2.60;;;24.10;58.40;;;;;;4997773;28;20217;-76
2021/08/23 03:41:15;;;;;;;2.67;2.47;;;24.10;58.70;;;;;;5005640;28;20592;-75
2021/08/23 03:43:41;;;;;;;4.33;2.67;;;24.10;58.40;;;;;;5007524;28;20182;-73
2021/08/23 03:46:07;;;;;;;5.90;2.70;;;24.10;58.70;;;;;;5010652;28;20223;-73
2021/08/23 03:48:34;;;;;;;4.10;3.00;;;24.00;58.90;;;;;;5008618;28;20672;-75
2021/08/23 03:51:00;;;;;;;4.07;2.70;;;24.00;59.10;;;;;;5009216;28;20279;-76
2021/08/23 03:53:27;;;;;;;4.63;2.50;;;24.00;59.90;;;;;;5007439;28;20200;-75
2021/08/23 03:55:53;;;;;;;4.13;2.67;;;24.00;59.30;;;;;;4989909;28;20189;-75
2021/08/23 03:58:19;;;;;;;6.97;2.60;;;24.10;59.90;;;;;;5000823;28;20799;-76
2021/08/23 04:00:45;;;;;;;4.00;2.70;;;24.10;60.00;;;;;;5007429;28;20327;-75
2021/08/23 04:03:12;;;;;;;4.80;2.83;;;24.00;59.70;;;;;;5007254;28;20275;-76
2021/08/23 04:05:38;;;;;;;6.37;2.80;;;24.10;60.10;;;;;;4991472;28;20189;-75
2021/08/23 04:08:04;;;;;;;4.93;2.90;;;24.00;60.10;;;;;;5007037;28;20193;-76
2021/08/23 04:10:31;;;;;;;4.17;2.70;;;24.10;61.00;;;;;;4980466;28;20697;-75
2021/08/23 04:12:58;;;;;;;5.23;2.90;;;24.10;60.80;;;;;;5006123;28;20207;-75
2021/08/23 04:15:25;;;;;;;5.40;2.60;;;24.00;60.70;;;;;;5005854;28;20205;-75
2021/08/23 04:17:51;;;;;;;4.57;2.60;;;24.00;61.40;;;;;;5009324;28;20208;-75
2021/08/23 04:20:17;;;;;;;7.20;2.70;;;24.00;61.30;;;;;;5001970;28;20527;-75
2021/08/23 04:22:44;;;;;;;4.37;2.83;;;24.00;61.10;;;;;;5009600;28;20958;-75
2021/08/23 04:25:10;;;;;;;5.87;2.60;;;24.00;61.30;;;;;;5008167;28;20681;-75
2021/08/23 04:27:36;;;;;;;8.07;2.93;;;24.00;61.90;;;;;;5005409;28;20974;-75
2021/08/23 04:30:03;;;;;;;12.60;3.10;;;24.00;62.40;;;;;;4989877;28;20207;-75
2021/08/23 04:32:29;;;;;;;5.10;2.50;;;24.10;62.00;;;;;;5008842;28;20201;-75
2021/08/23 04:34:56;;;;;;;9.53;2.77;;;24.10;61.20;;;;;;5006082;28;20189;-75
2021/08/23 04:37:22;;;;;;;6.10;2.90;;;24.20;62.00;;;;;;5009301;28;20771;-75
2021/08/23 04:39:48;;;;;;;6.00;2.97;;;24.20;63.20;;;;;;5001832;28;20188;-75
2021/08/23 04:42:15;;;;;;;6.00;2.55;;;24.30;62.30;;;;;;4994110;28;20243;-75
2021/08/23 04:44:44;;;;;;;6.80;2.63;;;24.30;63.10;;;;;;5007112;28;20212;-76
2021/08/23 04:47:11;;;;;;;3.33;2.40;;;24.30;62.90;;;;;;5007499;28;20191;-74
2021/08/23 04:49:37;;;;;;;8.77;2.93;;;24.40;64.30;;;;;;5002716;28;20213;-75
2021/08/23 04:52:04;;;;;;;2.50;2.30;;;24.40;63.30;;;;;;5004347;28;20189;-75
2021/08/23 04:54:30;;;;;;;7.00;2.70;;;24.40;63.50;;;;;;5005822;28;20305;-75
2021/08/23 04:56:58;;;;;;;3.73;2.97;;;24.50;65.90;;;;;;5006562;28;20227;-75
2021/08/23 04:59:24;;;;;;;7.38;3.10;;;24.50;66.90;;;;;;5007215;28;20205;-75
2021/08/23 05:01:51;;;;;;;4.63;2.88;;;24.50;66.70;;;;;;5008586;28;20538;-75
2021/08/23 05:04:18;;;;;;;10.30;3.00;;;24.50;68.70;;;;;;5006722;28;20193;-75
2021/08/23 05:06:44;;;;;;;5.50;3.07;;;24.50;68.80;;;;;;5023664;28;20197;-75
2021/08/23 05:09:10;;;;;;;4.03;2.90;;;24.60;70.00;;;;;;5008244;28;20203;-75
2021/08/23 05:11:37;;;;;;;5.05;2.97;;;24.60;71.70;;;;;;5003089;28;20870;-75
2021/08/23 05:14:04;;;;;;;4.70;2.43;;;24.70;72.10;;;;;;4980906;28;20193;-75
2021/08/23 05:16:32;;;;;;;6.00;2.90;;;24.70;72.20;;;;;;5018950;28;20197;-75
2021/08/23 05:18:59;;;;;;;8.18;2.95;;;24.70;71.70;;;;;;5005891;28;20219;-75
2021/08/23 05:21:25;;;;;;;3.20;2.70;;;24.70;71.70;;;;;;5020796;28;20201;-74
2021/08/23 05:23:51;;;;;;;5.55;2.83;;;24.70;71.80;;;;;;5011854;28;20190;-75
2021/08/23 05:26:17;;;;;;;6.80;3.20;;;24.80;71.80;;;;;;5011444;28;20212;-75
2021/08/23 05:28:44;;;;;;;5.78;3.00;;;24.90;72.60;;;;;;5011630;28;21154;-75
2021/08/23 05:31:10;;;;;;;4.40;2.72;;;24.90;72.60;;;;;;5002373;28;20196;-74
2021/08/23 05:33:36;;;;;;;6.63;3.15;;;25.00;73.10;;;;;;5011229;28;20219;-75
2021/08/23 05:36:03;;;;;;;5.30;2.80;;;25.00;73.70;;;;;;5009567;28;20200;-75
2021/08/23 05:38:30;;;;;;;7.80;2.97;;;25.10;74.10;;;;;;5019876;28;20209;-75
2021/08/23 05:40:56;;;;;;;3.63;2.67;;;25.10;74.60;;;;;;5000773;28;20190;-75
2021/08/23 05:43:22;;;;;;;6.60;3.08;;;25.10;74.70;;;;;;4980298;28;20199;-74
2021/08/23 05:45:49;;;;;;;5.55;3.20;;;25.20;75.50;;;;;;5002277;28;20232;-74
2021/08/23 05:48:16;;;;;;;5.83;3.17;;;25.30;77.10;;;;;;5002449;28;20905;-74
2021/08/23 05:50:44;;;;;;;6.82;3.42;;;25.30;77.60;;;;;;5022888;28;20192;-74
2021/08/23 05:53:10;;;;;;;5.57;3.50;;;25.50;79.10;;;;;;5008238;28;20195;-75
2021/08/23 05:55:36;;;;;;;7.25;3.70;;;25.60;80.30;;;;;;5008490;28;20216;-75
2021/08/23 05:58:03;;;;;;;7.63;3.63;;;25.70;79.90;;;;;;5005546;28;20728;-74
2021/08/23 06:00:29;;;;;;;8.82;3.70;;;25.80;83.50;;;;;;5010217;28;20714;-75
2021/08/23 06:02:56;;;;;;;10.23;4.00;;;25.90;84.20;;;;;;5010691;28;20268;-73
2021/08/23 06:05:22;;;;;;;7.60;3.53;;;25.90;85.60;;;;;;5005622;28;20280;-74
2021/08/23 06:07:49;;;;;;;7.43;3.60;;;26.00;85.40;;;;;;5021086;28;20189;-73
2021/08/23 06:10:15;;;;;;;8.43;3.97;;;25.90;85.40;;;;;;5000569;28;20232;-72
2021/08/23 06:12:42;;;;;;;11.85;3.40;;;26.10;88.10;;;;;;5002139;28;20295;-72
2021/08/23 06:15:09;;;;;;;8.57;3.50;;;26.10;88.30;;;;;;5001208;28;20189;-72
2021/08/23 06:17:35;;;;;;;9.15;3.78;;;26.20;87.90;;;;;;5002993;28;20224;-73
2021/08/23 06:20:03;;;;;;;6.72;3.30;;;26.20;87.20;;;;;;5020376;28;20212;-73
2021/08/23 06:22:30;;;;;;;10.02;3.97;;;26.20;87.20;;;;;;5006039;28;20189;-74
2021/08/23 06:24:57;;;;;;;10.68;3.70;;;26.30;87.90;;;;;;5003651;28;20299;-72
2021/08/23 06:27:23;;;;;;;9.18;3.78;;;26.30;86.60;;;;;;5005887;28;20197;-71
2021/08/23 06:29:50;;;;;;;8.30;3.92;;;26.40;87.70;;;;;;5004740;28;20828;-72
2021/08/23 06:32:16;;;;;;;16.30;4.20;;;26.60;90.40;;;;;;5005530;28;20186;-72
2021/08/23 06:34:43;;;;;;;14.15;4.45;;;26.70;91.30;;;;;;5004861;28;20196;-71
2021/08/23 06:37:09;;;;;;;12.13;4.38;;;26.80;91.90;;;;;;5004282;28;20189;-72
2021/08/23 06:39:36;;;;;;;10.70;4.50;;;26.90;91.50;;;;;;5001522;28;20188;-72
2021/08/23 06:42:02;;;;;;;12.52;4.25;;;27.00;91.20;;;;;;5004976;28;20184;-74
2021/08/23 06:44:28;;;;;;;10.25;3.90;;;27.00;90.80;;;;;;4997110;28;20188;-72
2021/08/23 06:46:54;;;;;;;7.53;3.78;;;27.10;86.20;;;;;;5003990;28;20192;-73
2021/08/23 06:49:21;;;;;;;10.43;3.75;;;27.20;86.70;;;;;;5005582;28;20311;-72
2021/08/23 06:51:47;;;;;;;7.95;3.95;;;27.20;90.70;;;;;;5007681;28;20184;-72
2021/08/23 06:54:13;;;;;;;7.85;3.65;;;27.30;86.30;;;;;;5008017;28;20193;-72
2021/08/23 06:56:42;;;;;;;6.20;3.83;;;27.30;84.70;;;;;;5003346;28;21009;-74
2021/08/23 06:59:09;;;;;;;8.75;3.45;;;27.30;83.90;;;;;;5001023;28;20224;-72
2021/08/23 07:01:35;;;;;;;7.82;3.47;;;27.40;81.40;;;;;;5004927;28;20178;-73
2021/08/23 07:04:02;;;;;;;9.77;3.55;;;27.50;81.50;;;;;;4988911;28;20188;-70
2021/08/23 07:06:29;;;;;;;8.50;3.63;;;27.50;83.20;;;;;;5004945;28;20189;-72
2021/08/23 07:08:55;;;;;;;9.68;3.95;;;27.60;83.90;;;;;;5008401;28;20197;-73
2021/08/23 07:11:21;;;;;;;7.63;3.83;;;27.70;84.20;;;;;;5001741;28;20258;-74
2021/08/23 07:13:49;;;;;;;12.02;4.13;;;27.80;87.60;;;;;;5006885;28;20613;-72
2021/08/23 07:16:15;;;;;;;8.65;3.88;;;27.90;89.60;;;;;;4996297;28;20604;-73
2021/08/23 07:18:44;;;;;;;12.18;4.20;;;27.90;88.60;;;;;;5001102;28;20299;-74
2021/08/23 07:21:10;;;;;;;10.07;3.80;;;28.00;90.20;;;;;;4997712;28;20224;-72
2021/08/23 07:23:37;;;;;;;7.95;3.42;;;28.10;88.40;;;;;;5008467;28;20240;-71
2021/08/23 07:26:03;;;;;;;8.63;3.90;;;28.20;88.70;;;;;;5002517;28;20184;-74
2021/08/23 07:28:30;;;;;;;10.20;3.85;;;28.30;89.30;;;;;;5003444;28;20311;-73
2021/08/23 07:30:56;;;;;;;11.50;3.75;;;28.40;88.90;;;;;;5008507;28;21093;-70
2021/08/23 07:33:22;;;;;;;7.88;3.85;;;28.50;83.60;;;;;;5007368;28;20185;-72
2021/08/23 07:35:49;;;;;;;8.63;3.60;;;28.60;83.80;;;;;;5004915;28;20204;-72
2021/08/23 07:38:15;;;;;;;8.90;3.67;;;28.60;77.50;;;;;;4999499;28;20228;-72
2021/08/23 07:40:42;;;;;;;7.18;3.53;;;28.70;80.10;;;;;;5004929;28;20569;-72
2021/08/23 07:43:08;;;;;;;8.65;3.40;;;28.80;78.10;;;;;;4990477;28;20275;-73
2021/08/23 07:45:35;;;;;;;10.07;3.45;;;28.90;76.70;;;;;;5000309;28;20491;-72
2021/08/23 07:48:03;;;;;;;18.75;3.78;;;28.80;75.00;;;;;;4999626;28;20601;-73
2021/08/23 07:50:29;;;;;;;10.82;4.13;;;28.90;76.20;;;;;;5005031;28;20185;-73
2021/08/23 07:52:56;;;;;;;7.10;3.35;;;29.00;78.30;;;;;;5000910;28;20649;-72
2021/08/23 07:55:22;;;;;;;9.40;3.67;;;29.20;72.30;;;;;;5001634;28;20193;-72
2021/08/23 07:57:50;;;;;;;5.32;2.97;;;29.10;77.00;;;;;;5005525;28;20718;-73
2021/08/23 08:00:22;;;;;;;7.35;3.80;;;29.00;77.20;;;;;;5004314;28;20192;-72
2021/08/23 08:02:49;;;;;;;6.68;4.10;;;29.20;80.80;;;;;;4998595;28;20189;-74
2021/08/23 08:05:16;;;;;;;9.68;3.92;;;29.20;78.80;;;;;;5003771;28;20196;-74
2021/08/23 08:07:43;;;;;;;13.70;3.75;;;29.30;78.90;;;;;;5003830;28;20189;-72
2021/08/23 08:10:14;;;;;;;8.38;3.70;;;29.60;80.50;;;;;;5009972;28;20592;-74
2021/08/23 08:12:42;;;;;;;9.02;3.75;;;29.60;79.80;;;;;;5005809;28;20189;-73
2021/08/23 08:15:11;;;;;;;10.63;4.18;;;29.60;81.30;;;;;;4987660;28;20189;-74
2021/08/23 08:17:38;;;;;;;11.10;4.35;;;29.70;85.70;;;;;;4991255;28;20212;-74
2021/08/23 08:20:08;;;;;;;8.15;4.20;;;29.70;84.80;;;;;;5005180;28;20185;-72
2021/08/23 08:22:35;;;;;;;11.50;4.97;;;29.70;89.70;;;;;;5006785;28;20201;-73
2021/08/23 08:25:03;;;;;;;11.65;4.55;;;29.90;91.00;;;;;;5005865;28;20640;-73
2021/08/23 08:27:30;;;;;;;7.93;4.22;;;29.90;91.90;;;;;;5004828;28;20193;-73
2021/08/23 08:29:56;;;;;;;15.68;5.13;;;30.00;91.70;;;;;;5008267;28;20251;-73
2021/08/23 08:32:23;;;;;;;7.88;4.32;;;30.00;92.00;;;;;;5012284;28;20283;-76
2021/08/23 08:34:49;;;;;;;7.82;4.40;;;30.10;91.80;;;;;;5000713;28;20220;-73
2021/08/23 08:37:15;;;;;;;12.65;4.43;;;30.10;91.00;;;;;;5004802;28;20193;-73
2021/08/23 08:39:42;;;;;;;12.20;4.47;;;30.20;91.90;;;;;;4988714;28;20280;-73
2021/08/23 08:42:08;;;;;;;11.85;5.13;;;30.40;91.50;;;;;;5006091;28;20760;-73
2021/08/23 08:44:37;;;;;;;10.80;3.83;;;30.40;91.80;;;;;;5002606;28;20332;-73
2021/08/23 08:47:04;;;;;;;6.68;4.03;;;30.30;91.30;;;;;;5018398;28;20219;-73
2021/08/23 08:49:35;;;;;;;11.40;4.20;;;30.40;88.30;;;;;;5012471;28;20273;-73
2021/08/23 08:52:04;;;;;;;8.63;4.40;;;30.50;91.10;;;;;;5002936;28;20674;-73
2021/08/23 08:54:31;;;;;;;13.18;4.70;;;30.60;90.90;;;;;;5006937;28;20193;-73
2021/08/23 08:57:01;;;;;;;8.38;4.60;;;30.70;91.40;;;;;;5007152;28;20212;-73
2021/08/23 08:59:29;;;;;;;12.55;4.60;;;30.80;91.90;;;;;;5006430;28;20220;-73
2021/08/23 09:01:56;;;;;;;10.32;4.97;;;30.70;91.50;;;;;;5005831;28;20194;-71
2021/08/23 09:04:35;;;;;;;11.52;4.60;;;30.70;92.00;;;;;;5008924;28;20200;-71
2021/08/23 09:07:03;;;;;;;11.48;4.97;;;30.90;92.50;;;;;;5021429;28;20191;-71
2021/08/23 09:09:30;;;;;;;10.23;4.25;;;31.00;91.70;;;;;;5018667;28;20194;-71
2021/08/23 09:12:01;;;;;;;10.90;4.47;;;31.00;90.80;;;;;;5007789;28;20189;-71
2021/08/23 09:14:29;;;;;;;10.45;4.38;;;31.20;90.20;;;;;;5006140;28;20185;-72
2021/08/23 09:17:05;;;;;;;9.45;4.72;;;31.20;92.20;;;;;;5006181;28;20193;-71
2021/08/23 09:19:36;;;;;;;10.57;4.60;;;31.20;93.30;;;;;;4994332;28;20283;-72
2021/08/23 09:22:18;;;;;;;11.27;4.60;;;31.30;93.40;;;;;;5018828;28;20244;-72
2021/08/23 09:24:45;;;;;;;8.07;4.40;;;31.30;93.70;;;;;;5003757;28;20257;-70
2021/08/23 09:27:14;;;;;;;10.07;4.80;;;31.30;94.20;;;;;;5006559;28;20802;-72
2021/08/23 09:30:00;;;;;;;9.73;4.35;;;31.30;94.50;;;;;;5001758;28;20193;-71
2021/08/23 09:32:51;;;;;;;16.58;5.35;;;31.40;94.50;;;;;;5001854;28;20224;-71
2021/08/23 09:35:38;;;;;;;14.77;4.82;;;31.40;96.90;;;;;;5003111;28;20241;-71
2021/08/23 09:38:13;;;;;;;8.90;4.85;;;31.30;96.70;;;;;;5017172;28;20217;-71
2021/08/23 09:40:41;;;;;;;12.55;4.97;;;31.40;97.00;;;;;;5003371;28;20831;-70
2021/08/23 09:43:13;;;;;;;9.05;4.70;;;31.40;97.20;;;;;;5007060;28;20224;-71
2021/08/23 09:45:49;;;;;;;7.97;4.35;;;31.40;97.90;;;;;;5002069;28;20606;-73
2021/08/23 09:48:18;;;;;;;12.88;4.63;;;31.50;96.90;;;;;;5000620;28;20221;-72
2021/08/23 09:50:50;;;;;;;12.90;4.38;;;31.40;95.90;;;;;;4994973;28;20274;-72
2021/08/23 09:53:20;;;;;;;11.88;4.70;;;31.50;94.30;;;;;;5002764;28;20669;-73
2021/08/23 09:55:50;;;;;;;10.60;4.68;;;31.80;95.70;;;;;;5021519;28;20676;-73
2021/08/23 09:58:17;;;;;;;12.30;5.07;;;31.90;95.70;;;;;;5003086;28;20273;-73
2021/08/23 10:00:45;;;;;;;9.23;4.63;;;31.90;96.30;;;;;;5003651;28;20204;-73
2021/08/23 10:03:21;;;;;;;9.70;4.55;;;31.90;95.90;;;;;;5003637;28;20762;-72
2021/08/23 10:05:49;;;;;;;11.25;4.85;;;32.00;95.30;;;;;;5005401;28;20188;-72
2021/08/23 10:08:24;;;;;;;15.00;4.93;;;32.10;95.20;;;;;;5003100;28;20193;-74
2021/08/23 10:10:53;;;;;;;11.07;4.53;;;32.20;95.20;;;;;;5017321;28;20287;-72
2021/08/23 10:13:27;;;;;;;9.23;4.25;;;32.30;94.50;;;;;;5014191;28;20205;-72
2021/08/23 10:15:53;;;;;;;9.30;4.60;;;33.40;92.80;;;;;;5001598;28;20646;-71
2021/08/23 10:18:21;;;;;;;9.32;3.95;;;35.40;89.20;;;;;;5001632;28;20213;-69
2021/08/23 10:20:48;;;;;;;12.10;4.13;;;37.40;86.80;;;;;;4998062;28;20197;-72
2021/08/23 10:23:18;;;;;;;12.60;4.28;;;37.00;87.30;;;;;;4996994;28;20752;-70
2021/08/23 10:25:47;;;;;;;9.95;4.63;;;35.90;89.00;;;;;;5001456;28;20181;-70
2021/08/23 10:28:18;;;;;;;13.88;4.57;;;34.90;90.40;;;;;;5000438;28;20192;-71
2021/08/23 10:30:45;;;;;;;12.50;4.80;;;34.20;91.50;;;;;;5006805;28;20448;-73
2021/08/23 10:33:17;;;;;;;8.82;4.45;;;34.00;91.50;;;;;;5000657;28;20192;-72
2021/08/23 10:35:57;;;;;;;12.68;4.55;;;34.00;90.70;;;;;;5002865;28;20188;-71
2021/08/23 10:38:26;;;;;;;11.23;4.30;;;34.90;91.10;;;;;;5001905;28;20209;-72
2021/08/23 10:41:14;;;;;;;10.70;4.50;;;36.70;88.70;;;;;;5006541;28;20189;-72
2021/08/23 10:43:52;;;;;;;12.25;4.60;;;38.60;85.50;;;;;;5001662;28;20861;-72
2021/08/23 10:46:33;;;;;;;9.80;4.05;;;37.80;84.30;;;;;;5003899;28;20189;-73
2021/08/23 10:49:25;;;;;;;11.73;4.10;;;35.20;88.70;;;;;;4999406;28;20208;-72
2021/08/23 10:52:00;;;;;;;12.10;3.97;;;34.40;89.80;;;;;;5011427;28;20180;-72
2021/08/23 10:54:35;;;;;;;9.02;3.90;;;33.90;88.70;;;;;;4999465;28;20179;-71
2021/08/23 10:57:01;;;;;;;10.98;4.07;;;33.80;89.30;;;;;;5004118;28;20184;-71
2021/08/23 10:59:47;;;;;;;12.63;4.10;;;33.40;90.00;;;;;;5001188;28;20216;-72
2021/08/23 11:02:37;;;;;;;13.77;3.88;;;33.40;90.10;;;;;;5004019;28;20189;-71
2021/08/23 11:05:14;;;;;;;13.05;4.90;;;33.40;88.80;;;;;;4986635;28;20627;-71
2021/08/23 11:07:57;;;;;;;12.73;4.80;;;33.40;88.60;;;;;;5001173;28;20847;-71
2021/08/23 11:10:26;;;;;;;11.95;5.18;;;33.20;87.80;;;;;;5003413;28;20832;-72
2021/08/23 11:12:56;;;;;;;11.23;5.43;;;33.20;87.40;;;;;;5003001;28;20268;-72
2021/08/23 11:15:30;;;;;;;10.27;6.05;;;33.20;87.20;;;;;;5006793;28;20188;-73
2021/08/23 11:18:02;;;;;;;15.50;5.70;;;33.20;86.70;;;;;;5003167;28;20208;-71
2021/08/23 11:20:34;;;;;;;15.05;8.48;;;33.30;87.30;;;;;;5006953;28;20952;-71
2021/08/23 11:23:03;;;;;;;11.02;7.15;;;33.30;86.70;;;;;;4999896;28;20216;-72
2021/08/23 11:25:43;;;;;;;14.52;8.10;;;33.20;86.20;;;;;;4999200;28;20275;-71
2021/08/23 11:28:13;;;;;;;10.70;7.13;;;33.30;85.60;;;;;;5002717;28;20699;-71
2021/08/23 11:30:49;;;;;;;14.40;6.40;;;33.30;84.60;;;;;;4987577;28;20200;-71
2021/08/23 11:33:42;;;;;;;14.65;7.53;;;33.10;84.40;;;;;;5002099;28;20216;-71
2021/08/23 11:36:24;;;;;;;14.80;7.85;;;33.00;85.70;;;;;;4998148;28;20232;-71
2021/08/23 11:38:51;;;;;;;21.52;12.43;;;33.00;86.70;;;;;;5002035;28;20223;-71
2021/08/23 11:41:18;;;;;;;20.98;14.13;;;33.40;87.00;;;;;;5000338;28;20203;-71
2021/08/23 11:43:44;;;;;;;16.33;11.65;;;33.40;86.80;;;;;;5007356;28;20296;-71
2021/08/23 11:46:13;;;;;;;18.63;12.35;;;33.30;86.50;;;;;;5004489;28;20274;-71
2021/08/23 11:48:43;;;;;;;33.55;13.95;;;33.30;85.60;;;;;;4989704;28;20199;-72
2021/08/23 11:51:10;;;;;;;20.00;12.73;;;33.20;84.80;;;;;;5005292;28;20230;-70
2021/08/23 11:53:37;;;;;;;20.25;12.98;;;33.30;85.50;;;;;;5000201;28;20185;-71
2021/08/23 11:56:08;;;;;;;23.05;11.82;;;32.90;85.80;;;;;;4996993;28;20228;-71
2021/08/23 11:58:39;;;;;;;18.70;11.60;;;33.10;86.20;;;;;;4999480;28;20221;-70
2021/08/23 12:01:09;;;;;;;21.20;10.48;;;33.20;85.40;;;;;;5001743;28;20197;-71
2021/08/23 12:03:37;;;;;;;22.67;9.70;;;33.20;85.10;;;;;;5006290;28;20601;-71
2021/08/23 12:06:10;;;;;;;16.63;8.73;;;33.00;85.20;;;;;;5007680;28;20304;-71
2021/08/23 12:08:40;;;;;;;17.52;10.43;;;32.80;85.20;;;;;;5003929;28;20553;-71
2021/08/23 12:11:18;;;;;;;17.48;9.60;;;32.90;84.80;;;;;;5005587;28;20195;-72
2021/08/23 12:13:50;;;;;;;16.05;8.88;;;32.60;85.40;;;;;;5005767;28;20208;-71
2021/08/23 12:16:34;;;;;;;15.77;9.20;;;32.50;86.30;;;;;;5006756;28;20826;-71
2021/08/23 12:19:12;;;;;;;13.32;7.25;;;32.10;86.30;;;;;;5004643;28;20218;-73
2021/08/23 12:21:40;;;;;;;13.43;6.88;;;32.40;86.90;;;;;;5004227;28;20180;-71
2021/08/23 12:24:17;;;;;;;11.30;6.43;;;32.80;85.80;;;;;;4999829;28;20291;-72
2021/08/23 12:26:54;;;;;;;15.95;7.15;;;33.10;85.10;;;;;;4997969;28;20207;-71
2021/08/23 12:29:38;;;;;;;17.60;6.50;;;33.00;85.20;;;;;;5005358;28;20264;-71
2021/08/23 12:32:08;;;;;;;11.15;6.15;;;33.10;84.50;;;;;;5006104;28;20188;-72
2021/08/23 12:34:39;;;;;;;18.35;8.20;;;32.80;85.80;;;;;;5019977;28;20920;-71
2021/08/23 12:37:06;;;;;;;19.35;6.53;;;32.70;84.80;;;;;;5011827;28;20534;-71
2021/08/23 12:39:33;;;;;;;23.33;6.85;;;32.70;85.50;;;;;;5006595;28;20307;-71
2021/08/23 12:42:04;;;;;;;15.57;6.70;;;32.90;84.10;;;;;;5008340;28;20694;-71
2021/08/23 12:44:31;;;;;;;11.95;7.07;;;32.90;84.80;;;;;;5006384;28;20219;-70
2021/08/23 12:46:57;;;;;;;13.77;6.45;;;32.50;84.30;;;;;;5005699;28;20856;-71
2021/08/23 12:49:24;;;;;;;17.25;6.43;;;32.40;85.90;;;;;;5005481;28;20292;-73
2021/08/23 12:51:51;;;;;;;15.07;6.53;;;32.50;85.30;;;;;;5007160;28;20346;-72